FFL750 KHXD-KEYW
Flight info
| Callsign | FFL750 |
|---|---|
| Flight time | 1h 19m |
| Altitude | 43000 |
| Route | GIPPL WOPNR Q97 KENLL OMN EBAYY FNTSY1 |
| Aircraft | C750/M-SBDE3FGHRWXY/S |
Departure
| Time | 2026-04-23 17:10 |
|---|---|
| Airport | Hilton Head Airport (KHXD) |
Arrival
| Time | 2026-04-23 18:30 |
|---|---|
| Airport | Key West International Airport (KEYW) |
| Time | Latitude | Longitude | Altitude | Speed | Heading |
|---|---|---|---|---|---|
| 2026-04-23 16:38 | 32.22217 | -80.69728 | 21 ft | 0 kts | 116° |
| 2026-04-23 17:06 | 32.22216 | -80.69726 | 48 ft | 1 kts | 116° |
| 2026-04-23 17:06 | 32.22229 | -80.69691 | 22 ft | 7 kts | 39° |
| 2026-04-23 17:06 | 32.22264 | -80.69675 | 21 ft | 8 kts | 4° |
| 2026-04-23 17:07 | 32.22312 | -80.69705 | 21 ft | 8 kts | 348° |
| 2026-04-23 17:07 | 32.22373 | -80.69678 | 22 ft | 11 kts | 25° |
| 2026-04-23 17:07 | 32.22446 | -80.69635 | 24 ft | 13 kts | 26° |
| 2026-04-23 17:07 | 32.22529 | -80.69588 | 25 ft | 13 kts | 25° |
| 2026-04-23 17:08 | 32.22616 | -80.69538 | 24 ft | 15 kts | 26° |
| 2026-04-23 17:08 | 32.22705 | -80.69486 | 25 ft | 14 kts | 26° |
| 2026-04-23 17:08 | 32.22791 | -80.69437 | 22 ft | 14 kts | 26° |
| 2026-04-23 17:08 | 32.22883 | -80.69384 | 20 ft | 15 kts | 26° |
| 2026-04-23 17:09 | 32.22952 | -80.69344 | 18 ft | 9 kts | 26° |
| 2026-04-23 17:09 | 32.22998 | -80.69317 | 19 ft | 5 kts | 26° |
| 2026-04-23 17:09 | 32.23023 | -80.69312 | 18 ft | 4 kts | 346° |
| 2026-04-23 17:09 | 32.23048 | -80.69357 | 19 ft | 8 kts | 294° |
| 2026-04-23 17:10 | 32.23034 | -80.69403 | 18 ft | 7 kts | 207° |
| 2026-04-23 17:10 | 32.22777 | -80.69551 | 22 ft | 97 kts | 206° |
| 2026-04-23 17:10 | 32.21977 | -80.70010 | 308 ft | 141 kts | 206° |
| 2026-04-23 17:10 | 32.21042 | -80.70508 | 927 ft | 156 kts | 204° |
| 2026-04-23 17:11 | 32.20017 | -80.71054 | 1599 ft | 168 kts | 206° |
| 2026-04-23 17:11 | 32.18915 | -80.71684 | 2326 ft | 183 kts | 207° |
| 2026-04-23 17:11 | 32.17702 | -80.72364 | 3035 ft | 203 kts | 206° |
| 2026-04-23 17:11 | 32.16368 | -80.73108 | 3774 ft | 221 kts | 205° |
| 2026-04-23 17:12 | 32.14918 | -80.73920 | 4514 ft | 240 kts | 204° |
| 2026-04-23 17:12 | 32.13357 | -80.74792 | 5299 ft | 256 kts | 204° |
| 2026-04-23 17:12 | 32.11712 | -80.75712 | 6155 ft | 266 kts | 204° |
| 2026-04-23 17:12 | 32.09998 | -80.76671 | 7002 ft | 275 kts | 204° |
| 2026-04-23 17:13 | 32.08271 | -80.77639 | 8106 ft | 275 kts | 204° |
| 2026-04-23 17:13 | 32.06532 | -80.78611 | 9242 ft | 278 kts | 204° |
| 2026-04-23 17:13 | 32.04802 | -80.79577 | 10253 ft | 280 kts | 205° |
| 2026-04-23 17:13 | 32.03011 | -80.80576 | 11107 ft | 284 kts | 205° |
| 2026-04-23 17:14 | 32.01225 | -80.81573 | 11933 ft | 288 kts | 206° |
| 2026-04-23 17:14 | 31.99401 | -80.82591 | 12839 ft | 291 kts | 206° |
| 2026-04-23 17:14 | 31.97555 | -80.83620 | 13681 ft | 295 kts | 206° |
| 2026-04-23 17:14 | 31.95689 | -80.84660 | 14449 ft | 299 kts | 206° |
| 2026-04-23 17:15 | 31.93790 | -80.85718 | 15195 ft | 303 kts | 206° |
| 2026-04-23 17:15 | 31.91864 | -80.86791 | 15910 ft | 309 kts | 206° |
| 2026-04-23 17:15 | 31.89924 | -80.87870 | 16616 ft | 315 kts | 206° |
| 2026-04-23 17:15 | 31.87921 | -80.88985 | 17360 ft | 321 kts | 206° |
| 2026-04-23 17:16 | 31.85881 | -80.90119 | 18099 ft | 328 kts | 206° |
| 2026-04-23 17:16 | 31.83799 | -80.91275 | 18800 ft | 334 kts | 206° |
| 2026-04-23 17:16 | 31.81687 | -80.92449 | 19552 ft | 337 kts | 206° |
| 2026-04-23 17:16 | 31.79552 | -80.93634 | 20292 ft | 341 kts | 206° |
| 2026-04-23 17:17 | 31.77389 | -80.94834 | 21006 ft | 347 kts | 206° |
| 2026-04-23 17:17 | 31.75196 | -80.96050 | 21765 ft | 351 kts | 206° |
| 2026-04-23 17:17 | 31.72972 | -80.97283 | 22483 ft | 356 kts | 206° |
| 2026-04-23 17:17 | 31.70708 | -80.98537 | 23188 ft | 362 kts | 206° |
| 2026-04-23 17:18 | 31.66103 | -81.01086 | 24522 ft | 371 kts | 206° |
| 2026-04-23 17:18 | 31.63760 | -81.02382 | 25150 ft | 375 kts | 206° |
| 2026-04-23 17:18 | 31.61326 | -81.03728 | 25175 ft | 398 kts | 206° |
| 2026-04-23 17:19 | 31.58787 | -81.05131 | 25647 ft | 404 kts | 205° |
| 2026-04-23 17:19 | 31.56239 | -81.06536 | 26330 ft | 406 kts | 206° |
| 2026-04-23 17:19 | 31.53670 | -81.07954 | 26927 ft | 410 kts | 206° |
| 2026-04-23 17:19 | 31.51080 | -81.09383 | 27546 ft | 413 kts | 206° |
| 2026-04-23 17:20 | 31.48468 | -81.10822 | 28136 ft | 417 kts | 205° |
| 2026-04-23 17:20 | 31.43163 | -81.13684 | 29300 ft | 424 kts | 205° |
| 2026-04-23 17:21 | 31.37635 | -81.16148 | 30289 ft | 433 kts | 186° |
| 2026-04-23 17:21 | 31.34627 | -81.16106 | 30839 ft | 434 kts | 176° |
| 2026-04-23 17:21 | 31.28619 | -81.15318 | 31787 ft | 440 kts | 173° |
| 2026-04-23 17:22 | 31.25555 | -81.14929 | 32219 ft | 444 kts | 175° |
| 2026-04-23 17:22 | 31.19360 | -81.14237 | 33169 ft | 450 kts | 174° |
| 2026-04-23 17:23 | 31.13090 | -81.13444 | 34070 ft | 456 kts | 174° |
| 2026-04-23 17:23 | 31.09917 | -81.13074 | 34469 ft | 459 kts | 175° |
| 2026-04-23 17:23 | 31.03512 | -81.12303 | 35225 ft | 466 kts | 174° |
| 2026-04-23 17:24 | 31.00276 | -81.11908 | 35600 ft | 469 kts | 175° |
| 2026-04-23 17:24 | 30.97017 | -81.11519 | 35973 ft | 472 kts | 175° |
| 2026-04-23 17:24 | 30.90436 | -81.10729 | 36729 ft | 478 kts | 175° |
| 2026-04-23 17:25 | 30.83819 | -81.09934 | 37466 ft | 484 kts | 175° |
| 2026-04-23 17:25 | 30.80455 | -81.09532 | 37825 ft | 487 kts | 175° |
| 2026-04-23 17:26 | 30.73660 | -81.08716 | 38528 ft | 493 kts | 175° |
| 2026-04-23 17:26 | 30.66789 | -81.07895 | 39133 ft | 499 kts | 175° |
| 2026-04-23 17:27 | 30.59836 | -81.07492 | 39684 ft | 501 kts | 184° |
| 2026-04-23 17:27 | 30.56349 | -81.07749 | 39970 ft | 503 kts | 186° |
| 2026-04-23 17:27 | 30.52850 | -81.08041 | 40236 ft | 506 kts | 186° |
| 2026-04-23 17:27 | 30.49320 | -81.08237 | 40510 ft | 509 kts | 185° |
| 2026-04-23 17:28 | 30.45773 | -81.08394 | 40778 ft | 511 kts | 185° |
| 2026-04-23 17:28 | 30.42216 | -81.08609 | 41039 ft | 513 kts | 186° |
| 2026-04-23 17:28 | 30.38632 | -81.08862 | 41297 ft | 516 kts | 186° |
| 2026-04-23 17:28 | 30.35096 | -81.09076 | 42116 ft | 501 kts | 186° |
| 2026-04-23 17:29 | 30.31687 | -81.09256 | 42667 ft | 494 kts | 186° |
| 2026-04-23 17:29 | 30.28241 | -81.09461 | 42811 ft | 498 kts | 186° |
| 2026-04-23 17:29 | 30.21368 | -81.09890 | 43165 ft | 492 kts | 186° |
| 2026-04-23 17:30 | 30.17924 | -81.10091 | 43170 ft | 500 kts | 186° |
| 2026-04-23 17:30 | 30.10874 | -81.10515 | 43183 ft | 514 kts | 186° |
| 2026-04-23 17:30 | 30.07297 | -81.10728 | 43179 ft | 515 kts | 186° |
| 2026-04-23 17:31 | 30.00128 | -81.11152 | 43185 ft | 516 kts | 186° |
| 2026-04-23 17:31 | 29.92949 | -81.11582 | 43189 ft | 516 kts | 186° |
| 2026-04-23 17:32 | 29.85766 | -81.12008 | 43190 ft | 517 kts | 186° |
| 2026-04-23 17:32 | 29.78623 | -81.12275 | 43176 ft | 517 kts | 184° |
| 2026-04-23 17:33 | 29.71430 | -81.12285 | 43174 ft | 517 kts | 184° |
| 2026-04-23 17:33 | 29.64234 | -81.12340 | 43173 ft | 517 kts | 184° |
| 2026-04-23 17:34 | 29.57041 | -81.12351 | 43170 ft | 518 kts | 182° |
| 2026-04-23 17:35 | 29.46226 | -81.11909 | 43176 ft | 518 kts | 181° |
| 2026-04-23 17:35 | 29.35414 | -81.11474 | 43165 ft | 518 kts | 181° |
| 2026-04-23 17:36 | 29.28246 | -81.10480 | 43152 ft | 525 kts | 168° |
| 2026-04-23 17:36 | 29.21322 | -81.07703 | 43171 ft | 528 kts | 162° |
| 2026-04-23 17:37 | 29.14427 | -81.05005 | 43172 ft | 526 kts | 166° |
| 2026-04-23 17:38 | 29.04032 | -81.00890 | 43175 ft | 527 kts | 164° |
| 2026-04-23 17:38 | 28.97082 | -80.98221 | 43172 ft | 527 kts | 165° |
| 2026-04-23 17:39 | 28.90153 | -80.95475 | 43156 ft | 526 kts | 164° |
| 2026-04-23 17:39 | 28.83220 | -80.92782 | 43155 ft | 526 kts | 165° |
| 2026-04-23 17:40 | 28.76290 | -80.90068 | 43139 ft | 526 kts | 165° |
| 2026-04-23 17:40 | 28.69352 | -80.87366 | 43131 ft | 527 kts | 165° |
| 2026-04-23 17:41 | 28.62419 | -80.84666 | 43166 ft | 526 kts | 165° |
| 2026-04-23 17:41 | 28.52072 | -80.80647 | 43166 ft | 526 kts | 165° |
| 2026-04-23 17:42 | 28.41686 | -80.76616 | 43167 ft | 526 kts | 165° |
| 2026-04-23 17:43 | 28.34752 | -80.73931 | 43144 ft | 526 kts | 165° |
| 2026-04-23 17:43 | 28.27816 | -80.71250 | 43151 ft | 527 kts | 165° |
| 2026-04-23 17:44 | 28.20882 | -80.68572 | 43140 ft | 526 kts | 165° |
| 2026-04-23 17:44 | 28.10470 | -80.64559 | 43146 ft | 526 kts | 165° |
| 2026-04-23 17:45 | 28.00102 | -80.60571 | 43136 ft | 527 kts | 166° |
| 2026-04-23 17:46 | 27.89679 | -80.56569 | 43143 ft | 527 kts | 166° |
| 2026-04-23 17:46 | 27.82731 | -80.53907 | 43150 ft | 527 kts | 166° |
| 2026-04-23 17:47 | 27.75773 | -80.51313 | 43134 ft | 524 kts | 170° |
| 2026-04-23 17:47 | 27.68677 | -80.50387 | 43149 ft | 506 kts | 187° |
| 2026-04-23 17:48 | 27.65171 | -80.50685 | 43161 ft | 505 kts | 190° |
| 2026-04-23 17:48 | 27.58154 | -80.51279 | 43165 ft | 506 kts | 189° |
| 2026-04-23 17:49 | 27.51133 | -80.51799 | 43154 ft | 505 kts | 189° |
| 2026-04-23 17:49 | 27.44167 | -80.52379 | 43149 ft | 505 kts | 189° |
| 2026-04-23 17:50 | 27.37149 | -80.52911 | 43135 ft | 505 kts | 189° |
| 2026-04-23 17:50 | 27.26621 | -80.53750 | 43136 ft | 505 kts | 189° |
| 2026-04-23 17:51 | 27.19597 | -80.54302 | 43136 ft | 506 kts | 189° |
| 2026-04-23 17:52 | 27.09062 | -80.55129 | 43136 ft | 506 kts | 189° |
| 2026-04-23 17:52 | 26.98535 | -80.55956 | 43143 ft | 506 kts | 189° |
| 2026-04-23 17:53 | 26.88008 | -80.56780 | 43135 ft | 506 kts | 189° |
| 2026-04-23 17:54 | 26.80987 | -80.57328 | 43132 ft | 506 kts | 190° |
| 2026-04-23 17:54 | 26.71637 | -80.58058 | 43131 ft | 506 kts | 190° |
| 2026-04-23 17:55 | 26.59963 | -80.58967 | 43137 ft | 506 kts | 190° |
| 2026-04-23 17:56 | 26.54103 | -80.59425 | 42541 ft | 508 kts | 190° |
| 2026-04-23 17:56 | 26.47196 | -80.59951 | 41237 ft | 486 kts | 190° |
| 2026-04-23 17:56 | 26.43856 | -80.60213 | 40603 ft | 477 kts | 190° |
| 2026-04-23 17:57 | 26.40574 | -80.60472 | 39977 ft | 469 kts | 190° |
| 2026-04-23 17:57 | 26.37339 | -80.60723 | 39368 ft | 463 kts | 190° |
| 2026-04-23 17:57 | 26.31000 | -80.61212 | 38102 ft | 450 kts | 190° |
| 2026-04-23 17:58 | 26.27889 | -80.61454 | 37512 ft | 445 kts | 190° |
| 2026-04-23 17:58 | 26.24812 | -80.61694 | 36915 ft | 442 kts | 191° |
| 2026-04-23 17:58 | 26.21754 | -80.61929 | 36347 ft | 438 kts | 191° |
| 2026-04-23 17:58 | 26.18694 | -80.62161 | 35768 ft | 450 kts | 191° |
| 2026-04-23 17:59 | 26.15535 | -80.62402 | 35166 ft | 455 kts | 190° |
| 2026-04-23 17:59 | 26.12378 | -80.62627 | 34568 ft | 454 kts | 190° |
| 2026-04-23 17:59 | 26.09238 | -80.62856 | 33945 ft | 451 kts | 190° |
| 2026-04-23 17:59 | 26.06158 | -80.63090 | 33343 ft | 447 kts | 190° |
| 2026-04-23 18:00 | 26.03057 | -80.63326 | 32753 ft | 445 kts | 190° |
| 2026-04-23 18:00 | 25.99978 | -80.63554 | 32172 ft | 441 kts | 190° |
| 2026-04-23 18:00 | 25.96925 | -80.63779 | 31589 ft | 438 kts | 190° |
| 2026-04-23 18:00 | 25.93896 | -80.64005 | 31008 ft | 434 kts | 190° |
| 2026-04-23 18:01 | 25.90894 | -80.64230 | 30440 ft | 431 kts | 190° |
| 2026-04-23 18:01 | 25.87884 | -80.64457 | 29884 ft | 442 kts | 190° |
| 2026-04-23 18:01 | 25.84776 | -80.64696 | 30040 ft | 454 kts | 189° |
| 2026-04-23 18:01 | 25.81572 | -80.64933 | 29929 ft | 470 kts | 189° |
| 2026-04-23 18:02 | 25.78267 | -80.65174 | 29704 ft | 478 kts | 189° |
| 2026-04-23 18:02 | 25.74933 | -80.65416 | 29290 ft | 482 kts | 189° |
| 2026-04-23 18:02 | 25.71591 | -80.65663 | 28652 ft | 480 kts | 189° |
| 2026-04-23 18:02 | 25.68268 | -80.65913 | 28028 ft | 477 kts | 188° |
| 2026-04-23 18:03 | 25.64963 | -80.66158 | 27402 ft | 475 kts | 188° |
| 2026-04-23 18:03 | 25.61674 | -80.66401 | 26804 ft | 473 kts | 188° |
| 2026-04-23 18:03 | 25.58397 | -80.66643 | 26213 ft | 470 kts | 188° |
| 2026-04-23 18:03 | 25.55144 | -80.66884 | 25641 ft | 467 kts | 188° |
| 2026-04-23 18:04 | 25.51910 | -80.67124 | 25079 ft | 465 kts | 187° |
| 2026-04-23 18:04 | 25.48691 | -80.67362 | 24526 ft | 462 kts | 187° |
| 2026-04-23 18:04 | 25.45534 | -80.67595 | 23994 ft | 460 kts | 187° |
| 2026-04-23 18:04 | 25.42348 | -80.67831 | 23418 ft | 457 kts | 187° |
| 2026-04-23 18:05 | 25.39194 | -80.68083 | 22780 ft | 450 kts | 188° |
| 2026-04-23 18:05 | 25.36168 | -80.68774 | 22117 ft | 441 kts | 197° |
| 2026-04-23 18:05 | 25.33216 | -80.69639 | 21512 ft | 435 kts | 198° |
| 2026-04-23 18:05 | 25.30303 | -80.70481 | 21072 ft | 432 kts | 197° |
| 2026-04-23 18:06 | 25.27394 | -80.71278 | 20619 ft | 428 kts | 196° |
| 2026-04-23 18:06 | 25.24511 | -80.72068 | 20170 ft | 425 kts | 197° |
| 2026-04-23 18:06 | 25.21664 | -80.72875 | 19723 ft | 421 kts | 197° |
| 2026-04-23 18:06 | 25.18837 | -80.73677 | 19285 ft | 418 kts | 197° |
| 2026-04-23 18:07 | 25.16030 | -80.74458 | 18847 ft | 415 kts | 197° |
| 2026-04-23 18:07 | 25.13242 | -80.75231 | 18410 ft | 411 kts | 197° |
| 2026-04-23 18:07 | 25.10481 | -80.76005 | 17944 ft | 408 kts | 197° |
| 2026-04-23 18:07 | 25.07733 | -80.76777 | 17506 ft | 406 kts | 197° |
| 2026-04-23 18:08 | 25.05928 | -80.77281 | 17221 ft | 398 kts | 197° |
| 2026-04-23 18:08 | 25.02516 | -80.78226 | 16617 ft | 360 kts | 197° |
| 2026-04-23 18:08 | 25.00254 | -80.79169 | 16188 ft | 337 kts | 212° |
| 2026-04-23 18:08 | 24.98457 | -80.80686 | 15871 ft | 315 kts | 224° |
| 2026-04-23 18:09 | 24.96864 | -80.82283 | 15567 ft | 306 kts | 224° |
| 2026-04-23 18:09 | 24.95314 | -80.83829 | 15255 ft | 303 kts | 224° |
| 2026-04-23 18:09 | 24.93751 | -80.85378 | 14945 ft | 301 kts | 224° |
| 2026-04-23 18:09 | 24.92194 | -80.86922 | 14629 ft | 300 kts | 224° |
| 2026-04-23 18:10 | 24.90651 | -80.88456 | 14315 ft | 298 kts | 224° |
| 2026-04-23 18:10 | 24.89113 | -80.89983 | 14002 ft | 297 kts | 224° |
| 2026-04-23 18:10 | 24.87577 | -80.91506 | 13672 ft | 296 kts | 224° |
| 2026-04-23 18:10 | 24.86051 | -80.93020 | 13347 ft | 294 kts | 224° |
| 2026-04-23 18:11 | 24.84535 | -80.94523 | 13037 ft | 294 kts | 224° |
| 2026-04-23 18:11 | 24.83014 | -80.96031 | 12732 ft | 294 kts | 224° |
| 2026-04-23 18:11 | 24.81494 | -80.97537 | 12422 ft | 293 kts | 224° |
| 2026-04-23 18:11 | 24.79985 | -80.99030 | 12114 ft | 291 kts | 224° |
| 2026-04-23 18:12 | 24.78477 | -81.00525 | 11811 ft | 293 kts | 224° |
| 2026-04-23 18:12 | 24.76992 | -81.02057 | 11487 ft | 290 kts | 229° |
| 2026-04-23 18:12 | 24.75890 | -81.03898 | 11183 ft | 287 kts | 241° |
| 2026-04-23 18:12 | 24.74862 | -81.05789 | 10903 ft | 289 kts | 240° |
| 2026-04-23 18:13 | 24.73800 | -81.07680 | 10596 ft | 292 kts | 239° |
| 2026-04-23 18:13 | 24.72729 | -81.09574 | 10294 ft | 291 kts | 239° |
| 2026-04-23 18:13 | 24.71670 | -81.11471 | 9987 ft | 290 kts | 240° |
| 2026-04-23 18:13 | 24.70614 | -81.13367 | 9666 ft | 290 kts | 239° |
| 2026-04-23 18:14 | 24.69571 | -81.15231 | 9355 ft | 289 kts | 239° |
| 2026-04-23 18:14 | 24.68517 | -81.17112 | 9051 ft | 288 kts | 239° |
| 2026-04-23 18:14 | 24.67467 | -81.18986 | 8748 ft | 287 kts | 239° |
| 2026-04-23 18:14 | 24.66423 | -81.20851 | 8449 ft | 286 kts | 239° |
| 2026-04-23 18:15 | 24.65379 | -81.22713 | 8153 ft | 285 kts | 239° |
| 2026-04-23 18:15 | 24.64233 | -81.24477 | 7983 ft | 280 kts | 229° |
| 2026-04-23 18:15 | 24.62934 | -81.26103 | 8003 ft | 283 kts | 229° |
| 2026-04-23 18:15 | 24.61648 | -81.27758 | 8006 ft | 285 kts | 230° |
| 2026-04-23 18:16 | 24.60361 | -81.29410 | 8008 ft | 285 kts | 229° |
| 2026-04-23 18:16 | 24.59062 | -81.31059 | 8008 ft | 285 kts | 229° |
| 2026-04-23 18:16 | 24.57756 | -81.32717 | 7881 ft | 287 kts | 229° |
| 2026-04-23 18:17 | 24.55372 | -81.36169 | 7449 ft | 283 kts | 242° |
| 2026-04-23 18:17 | 24.54495 | -81.38077 | 7261 ft | 284 kts | 243° |
| 2026-04-23 18:17 | 24.53602 | -81.40009 | 7070 ft | 282 kts | 242° |
| 2026-04-23 18:17 | 24.52691 | -81.41916 | 6883 ft | 281 kts | 242° |
| 2026-04-23 18:18 | 24.51782 | -81.43819 | 6693 ft | 281 kts | 242° |
| 2026-04-23 18:18 | 24.50882 | -81.45723 | 6509 ft | 281 kts | 242° |
| 2026-04-23 18:18 | 24.49982 | -81.47627 | 6310 ft | 280 kts | 242° |
| 2026-04-23 18:18 | 24.49083 | -81.49522 | 6108 ft | 279 kts | 242° |
| 2026-04-23 18:19 | 24.48186 | -81.51412 | 5989 ft | 278 kts | 241° |
| 2026-04-23 18:19 | 24.47290 | -81.53301 | 6017 ft | 280 kts | 241° |
| 2026-04-23 18:19 | 24.46528 | -81.55261 | 5949 ft | 281 kts | 256° |
| 2026-04-23 18:19 | 24.46436 | -81.57411 | 5926 ft | 284 kts | 270° |
| 2026-04-23 18:20 | 24.46443 | -81.59560 | 5949 ft | 282 kts | 269° |
| 2026-04-23 18:20 | 24.46421 | -81.61705 | 5961 ft | 281 kts | 269° |
| 2026-04-23 18:20 | 24.46392 | -81.63862 | 5967 ft | 283 kts | 269° |
| 2026-04-23 18:20 | 24.46373 | -81.66014 | 5972 ft | 281 kts | 269° |
| 2026-04-23 18:21 | 24.46356 | -81.68140 | 5973 ft | 284 kts | 269° |
| 2026-04-23 18:21 | 24.46336 | -81.70289 | 5958 ft | 272 kts | 268° |
| 2026-04-23 18:21 | 24.46317 | -81.72324 | 5828 ft | 264 kts | 269° |
| 2026-04-23 18:21 | 24.46297 | -81.74318 | 5694 ft | 261 kts | 268° |
| 2026-04-23 18:22 | 24.46277 | -81.76320 | 5561 ft | 262 kts | 269° |
| 2026-04-23 18:22 | 24.46258 | -81.78303 | 5431 ft | 255 kts | 269° |
| 2026-04-23 18:22 | 24.46238 | -81.80254 | 5319 ft | 259 kts | 268° |
| 2026-04-23 18:22 | 24.46218 | -81.82219 | 5081 ft | 258 kts | 268° |
| 2026-04-23 18:23 | 24.46204 | -81.83532 | 4905 ft | 260 kts | 269° |
| 2026-04-23 18:23 | 24.46158 | -81.88015 | 4243 ft | 245 kts | 268° |
| 2026-04-23 18:24 | 24.46118 | -81.91723 | 3709 ft | 240 kts | 268° |
| 2026-04-23 18:24 | 24.46160 | -81.93526 | 3404 ft | 237 kts | 279° |
| 2026-04-23 18:24 | 24.47003 | -81.95062 | 3072 ft | 237 kts | 322° |
| 2026-04-23 18:25 | 24.50042 | -81.95722 | 3011 ft | 228 kts | 359° |
| 2026-04-23 18:25 | 24.51620 | -81.95865 | 3050 ft | 227 kts | 359° |
| 2026-04-23 18:25 | 24.53160 | -81.95978 | 3051 ft | 215 kts | 7° |
| 2026-04-23 18:25 | 24.54474 | -81.95360 | 2940 ft | 196 kts | 44° |
| 2026-04-23 18:26 | 24.55438 | -81.94347 | 2992 ft | 195 kts | 52° |
| 2026-04-23 18:26 | 24.55830 | -81.92989 | 2932 ft | 186 kts | 95° |
| 2026-04-23 18:26 | 24.55584 | -81.91622 | 3006 ft | 185 kts | 102° |
| 2026-04-23 18:26 | 24.55460 | -81.90229 | 2995 ft | 178 kts | 94° |
| 2026-04-23 18:27 | 24.55472 | -81.88863 | 2786 ft | 185 kts | 90° |
| 2026-04-23 18:27 | 24.55497 | -81.87461 | 2471 ft | 178 kts | 91° |
| 2026-04-23 18:27 | 24.55514 | -81.86147 | 2018 ft | 166 kts | 90° |
| 2026-04-23 18:27 | 24.55525 | -81.84915 | 1478 ft | 154 kts | 89° |
| 2026-04-23 18:28 | 24.55536 | -81.83804 | 1229 ft | 140 kts | 91° |
| 2026-04-23 18:28 | 24.55547 | -81.82797 | 1044 ft | 123 kts | 91° |
| 2026-04-23 18:28 | 24.55555 | -81.81923 | 909 ft | 110 kts | 91° |
| 2026-04-23 18:28 | 24.55563 | -81.81071 | 775 ft | 111 kts | 91° |
| 2026-04-23 18:29 | 24.55571 | -81.80200 | 652 ft | 117 kts | 89° |
| 2026-04-23 18:29 | 24.55580 | -81.79288 | 480 ft | 123 kts | 90° |
| 2026-04-23 18:29 | 24.55588 | -81.78352 | 330 ft | 121 kts | 89° |
| 2026-04-23 18:29 | 24.55603 | -81.77438 | 166 ft | 118 kts | 90° |
| 2026-04-23 18:30 | 24.55610 | -81.76557 | 27 ft | 107 kts | 90° |
| 2026-04-23 18:30 | 24.55614 | -81.75846 | 6 ft | 69 kts | 89° |
| 2026-04-23 18:30 | 24.55606 | -81.75605 | 8 ft | 16 kts | 124° |
| 2026-04-23 18:30 | 24.55554 | -81.75588 | 6 ft | 1 kts | 181° |
| 2026-04-23 18:31 | 24.55533 | -81.75606 | 6 ft | 7 kts | 246° |
| 2026-04-23 18:31 | 24.55529 | -81.75661 | 6 ft | 8 kts | 261° |
| 2026-04-23 18:31 | 24.55485 | -81.75677 | 6 ft | 7 kts | 176° |
| 2026-04-23 18:31 | 24.55437 | -81.75674 | 6 ft | 5 kts | 177° |
| 2026-04-23 18:32 | 24.55435 | -81.75674 | 6 ft | 0 kts | 177° |